KDCU/DCU METAR and TAF weather

Enter ICAO airport designator
Station Type Date Time Source
KDCU METAR 2021/07/29 02:53 UTC NOAA

KDCU 290253Z AUTO 00000KT 9SM CLR 24/22 A3005 RMK AO2 SLP169 T02390222 53017


Station Type Date Time Source
KDCU Decoded METAR 2021/07/29 02:53 UTC NOAA

PRYOR FIELD, AL, United States (KDCU) 34-39N 086-57W 176M
Jul 28, 2021 - 10:53 PM EDT / 2021.07.29 0253 UTC
Wind: Calm:0
Visibility: 9 mile(s):0
Sky conditions: clear
Temperature: 75.0 F (23.9 C)
Dew Point: 72.0 F (22.2 C)
Relative Humidity: 90%
Pressure (altimeter): 30.05 in. Hg (1017 hPa)
Pressure tendency: 0.05 inches (1.7 hPa) higher than three hours ago
ob: KDCU 290253Z AUTO 00000KT 9SM CLR 24/22 A3005 RMK AO2 SLP169 T02390222 53017
cycle: 3

Station Type Date Time Source
KDCU TAF UTC NOAA

Error!

Example: see airport list